sensor_id;sensor_type;location;lat;lon;timestamp;P1;durP1;ratioP1;P2;durP2;ratioP2
11305;SDS011;5708;50.660;6.778;2022-10-15T00:01:27;6.38;;;4.55;;
11305;SDS011;5708;50.660;6.778;2022-10-15T00:03:53;5.95;;;3.95;;
11305;SDS011;5708;50.660;6.778;2022-10-15T00:06:19;5.43;;;3.35;;
11305;SDS011;5708;50.660;6.778;2022-10-15T00:08:45;5.13;;;3.33;;
11305;SDS011;5708;50.660;6.778;2022-10-15T00:11:15;4.60;;;2.75;;
11305;SDS011;5708;50.660;6.778;2022-10-15T00:13:42;5.65;;;2.45;;
11305;SDS011;5708;50.660;6.778;2022-10-15T00:16:10;4.50;;;2.33;;
11305;SDS011;5708;50.660;6.778;2022-10-15T00:18:37;2.63;;;1.75;;
11305;SDS011;5708;50.660;6.778;2022-10-15T00:21:06;2.53;;;1.40;;
11305;SDS011;5708;50.660;6.778;2022-10-15T00:23:33;2.08;;;1.20;;
11305;SDS011;5708;50.660;6.778;2022-10-15T00:26:06;2.75;;;1.38;;
11305;SDS011;5708;50.660;6.778;2022-10-15T00:28:33;1.83;;;1.00;;
11305;SDS011;5708;50.660;6.778;2022-10-15T00:31:06;1.73;;;1.10;;
11305;SDS011;5708;50.660;6.778;2022-10-15T00:33:33;3.17;;;1.08;;
11305;SDS011;5708;50.660;6.778;2022-10-15T00:36:06;4.07;;;1.20;;
11305;SDS011;5708;50.660;6.778;2022-10-15T00:38:33;1.30;;;1.02;;
11305;SDS011;5708;50.660;6.778;2022-10-15T00:40:59;3.03;;;1.10;;
11305;SDS011;5708;50.660;6.778;2022-10-15T00:46:05;1.70;;;1.23;;
11305;SDS011;5708;50.660;6.778;2022-10-15T00:48:40;3.45;;;1.20;;
11305;SDS011;5708;50.660;6.778;2022-10-15T00:51:05;2.20;;;1.10;;
11305;SDS011;5708;50.660;6.778;2022-10-15T00:53:31;1.58;;;0.90;;
11305;SDS011;5708;50.660;6.778;2022-10-15T00:55:56;3.40;;;1.42;;
11305;SDS011;5708;50.660;6.778;2022-10-15T00:58:23;3.10;;;1.17;;
11305;SDS011;5708;50.660;6.778;2022-10-15T01:00:53;3.42;;;1.20;;
11305;SDS011;5708;50.660;6.778;2022-10-15T01:03:19;2.45;;;1.10;;
11305;SDS011;5708;50.660;6.778;2022-10-15T01:05:45;1.25;;;1.00;;
11305;SDS011;5708;50.660;6.778;2022-10-15T01:08:13;2.08;;;1.15;;
11305;SDS011;5708;50.660;6.778;2022-10-15T01:11:08;2.00;;;1.00;;
11305;SDS011;5708;50.660;6.778;2022-10-15T01:16:23;2.40;;;1.00;;
11305;SDS011;5708;50.660;6.778;2022-10-15T01:41:13;3.38;;;1.17;;
11305;SDS011;5708;50.660;6.778;2022-10-15T01:43:44;2.15;;;1.30;;
11305;SDS011;5708;50.660;6.778;2022-10-15T01:46:18;2.88;;;1.05;;
11305;SDS011;5708;50.660;6.778;2022-10-15T01:48:46;1.80;;;1.20;;
11305;SDS011;5708;50.660;6.778;2022-10-15T01:51:13;1.45;;;1.00;;
11305;SDS011;5708;50.660;6.778;2022-10-15T01:53:39;1.92;;;1.17;;
11305;SDS011;5708;50.660;6.778;2022-10-15T01:56:07;2.45;;;1.17;;
11305;SDS011;5708;50.660;6.778;2022-10-15T01:58:35;2.75;;;1.10;;
11305;SDS011;5708;50.660;6.778;2022-10-15T02:01:02;1.88;;;1.08;;
11305;SDS011;5708;50.660;6.778;2022-10-15T02:03:28;1.77;;;0.88;;
11305;SDS011;5708;50.660;6.778;2022-10-15T02:06:03;2.35;;;1.23;;
11305;SDS011;5708;50.660;6.778;2022-10-15T02:08:37;1.80;;;1.00;;
11305;SDS011;5708;50.660;6.778;2022-10-15T02:11:22;1.52;;;1.17;;
11305;SDS011;5708;50.660;6.778;2022-10-15T02:14:01;2.50;;;1.00;;
11305;SDS011;5708;50.660;6.778;2022-10-15T02:19:27;2.92;;;0.90;;
11305;SDS011;5708;50.660;6.778;2022-10-15T02:22:25;1.33;;;0.95;;
11305;SDS011;5708;50.660;6.778;2022-10-15T02:24:57;2.47;;;1.10;;
11305;SDS011;5708;50.660;6.778;2022-10-15T02:27:27;4.03;;;1.13;;
11305;SDS011;5708;50.660;6.778;2022-10-15T02:29:54;1.63;;;1.00;;
11305;SDS011;5708;50.660;6.778;2022-10-15T02:32:20;2.03;;;1.00;;
11305;SDS011;5708;50.660;6.778;2022-10-15T02:34:46;1.45;;;1.00;;
11305;SDS011;5708;50.660;6.778;2022-10-15T02:37:13;2.25;;;1.20;;
11305;SDS011;5708;50.660;6.778;2022-10-15T02:39:40;2.88;;;1.10;;
11305;SDS011;5708;50.660;6.778;2022-10-15T02:42:05;1.85;;;0.98;;
11305;SDS011;5708;50.660;6.778;2022-10-15T02:44:31;1.83;;;1.10;;
11305;SDS011;5708;50.660;6.778;2022-10-15T02:46:56;0.82;;;0.80;;
11305;SDS011;5708;50.660;6.778;2022-10-15T02:49:22;2.00;;;0.90;;
11305;SDS011;5708;50.660;6.778;2022-10-15T02:51:48;1.00;;;0.80;;
11305;SDS011;5708;50.660;6.778;2022-10-15T02:54:13;1.60;;;1.13;;
11305;SDS011;5708;50.660;6.778;2022-10-15T02:56:39;2.17;;;1.20;;
11305;SDS011;5708;50.660;6.778;2022-10-15T02:59:04;1.55;;;1.00;;
11305;SDS011;5708;50.660;6.778;2022-10-15T03:01:30;2.03;;;1.00;;
11305;SDS011;5708;50.660;6.778;2022-10-15T03:03:56;2.10;;;1.13;;
11305;SDS011;5708;50.660;6.778;2022-10-15T03:06:22;1.27;;;1.02;;
11305;SDS011;5708;50.660;6.778;2022-10-15T03:08:47;2.75;;;1.15;;
11305;SDS011;5708;50.660;6.778;2022-10-15T03:11:12;4.10;;;1.00;;
11305;SDS011;5708;50.660;6.778;2022-10-15T03:13:38;1.77;;;1.10;;
11305;SDS011;5708;50.660;6.778;2022-10-15T03:16:05;2.13;;;1.08;;
11305;SDS011;5708;50.660;6.778;2022-10-15T03:18:31;1.90;;;1.10;;
11305;SDS011;5708;50.660;6.778;2022-10-15T03:20:57;3.20;;;1.15;;
11305;SDS011;5708;50.660;6.778;2022-10-15T03:23:23;2.83;;;1.15;;
11305;SDS011;5708;50.660;6.778;2022-10-15T03:25:48;3.72;;;1.10;;
11305;SDS011;5708;50.660;6.778;2022-10-15T03:28:14;2.28;;;0.98;;
11305;SDS011;5708;50.660;6.778;2022-10-15T03:30:40;2.72;;;1.33;;
11305;SDS011;5708;50.660;6.778;2022-10-15T03:33:06;1.52;;;0.90;;
11305;SDS011;5708;50.660;6.778;2022-10-15T03:35:32;3.33;;;1.17;;
11305;SDS011;5708;50.660;6.778;2022-10-15T03:37:57;3.13;;;1.58;;
11305;SDS011;5708;50.660;6.778;2022-10-15T03:40:22;3.20;;;1.20;;
11305;SDS011;5708;50.660;6.778;2022-10-15T03:42:51;3.90;;;1.50;;
11305;SDS011;5708;50.660;6.778;2022-10-15T03:45:17;2.25;;;1.30;;
11305;SDS011;5708;50.660;6.778;2022-10-15T03:47:43;2.85;;;1.30;;
11305;SDS011;5708;50.660;6.778;2022-10-15T03:50:08;3.10;;;1.20;;
11305;SDS011;5708;50.660;6.778;2022-10-15T03:52:34;2.33;;;1.02;;
11305;SDS011;5708;50.660;6.778;2022-10-15T03:55:00;2.17;;;1.08;;
11305;SDS011;5708;50.660;6.778;2022-10-15T03:57:25;1.55;;;0.95;;
11305;SDS011;5708;50.660;6.778;2022-10-15T03:59:51;2.67;;;1.20;;
11305;SDS011;5708;50.660;6.778;2022-10-15T04:02:16;2.30;;;1.05;;
11305;SDS011;5708;50.660;6.778;2022-10-15T04:04:42;1.85;;;1.20;;
11305;SDS011;5708;50.660;6.778;2022-10-15T04:07:07;2.47;;;1.65;;
11305;SDS011;5708;50.660;6.778;2022-10-15T04:09:32;1.67;;;1.10;;
11305;SDS011;5708;50.660;6.778;2022-10-15T04:11:58;5.38;;;1.50;;
11305;SDS011;5708;50.660;6.778;2022-10-15T04:14:23;2.65;;;1.52;;
11305;SDS011;5708;50.660;6.778;2022-10-15T04:16:48;2.40;;;1.20;;
11305;SDS011;5708;50.660;6.778;2022-10-15T04:19:14;4.05;;;1.33;;
11305;SDS011;5708;50.660;6.778;2022-10-15T04:21:40;2.45;;;1.40;;
11305;SDS011;5708;50.660;6.778;2022-10-15T04:24:05;2.63;;;1.20;;
11305;SDS011;5708;50.660;6.778;2022-10-15T04:26:30;5.13;;;1.70;;
11305;SDS011;5708;50.660;6.778;2022-10-15T04:28:56;3.38;;;1.30;;
11305;SDS011;5708;50.660;6.778;2022-10-15T04:31:21;3.67;;;1.30;;
11305;SDS011;5708;50.660;6.778;2022-10-15T04:33:47;1.40;;;1.20;;
11305;SDS011;5708;50.660;6.778;2022-10-15T04:36:13;4.13;;;1.23;;
11305;SDS011;5708;50.660;6.778;2022-10-15T04:38:38;2.25;;;1.20;;
11305;SDS011;5708;50.660;6.778;2022-10-15T04:41:05;3.50;;;1.30;;
11305;SDS011;5708;50.660;6.778;2022-10-15T04:43:32;1.85;;;1.13;;
11305;SDS011;5708;50.660;6.778;2022-10-15T04:45:58;2.15;;;1.10;;
11305;SDS011;5708;50.660;6.778;2022-10-15T04:48:24;1.27;;;1.00;;
11305;SDS011;5708;50.660;6.778;2022-10-15T04:50:51;2.75;;;1.33;;
11305;SDS011;5708;50.660;6.778;2022-10-15T04:53:17;1.88;;;1.10;;
11305;SDS011;5708;50.660;6.778;2022-10-15T04:55:42;1.27;;;0.90;;
11305;SDS011;5708;50.660;6.778;2022-10-15T04:58:08;2.92;;;1.30;;
11305;SDS011;5708;50.660;6.778;2022-10-15T05:00:33;2.47;;;1.00;;
11305;SDS011;5708;50.660;6.778;2022-10-15T05:02:58;1.80;;;1.00;;
11305;SDS011;5708;50.660;6.778;2022-10-15T05:05:24;2.78;;;1.25;;
11305;SDS011;5708;50.660;6.778;2022-10-15T05:07:49;3.25;;;1.10;;
11305;SDS011;5708;50.660;6.778;2022-10-15T05:10:14;3.45;;;1.10;;
11305;SDS011;5708;50.660;6.778;2022-10-15T05:12:40;1.83;;;0.98;;
11305;SDS011;5708;50.660;6.778;2022-10-15T05:15:05;2.35;;;1.02;;
11305;SDS011;5708;50.660;6.778;2022-10-15T05:17:31;2.00;;;1.00;;
11305;SDS011;5708;50.660;6.778;2022-10-15T05:19:56;0.90;;;0.82;;
11305;SDS011;5708;50.660;6.778;2022-10-15T05:22:21;1.58;;;0.98;;
11305;SDS011;5708;50.660;6.778;2022-10-15T05:24:47;2.58;;;1.10;;
11305;SDS011;5708;50.660;6.778;2022-10-15T05:27:13;2.30;;;1.30;;
11305;SDS011;5708;50.660;6.778;2022-10-15T05:29:38;1.15;;;0.95;;
11305;SDS011;5708;50.660;6.778;2022-10-15T05:32:04;1.60;;;1.08;;
11305;SDS011;5708;50.660;6.778;2022-10-15T05:34:30;1.80;;;1.00;;
11305;SDS011;5708;50.660;6.778;2022-10-15T05:36:55;3.22;;;1.00;;
11305;SDS011;5708;50.660;6.778;2022-10-15T05:39:20;1.98;;;1.10;;
11305;SDS011;5708;50.660;6.778;2022-10-15T05:41:46;1.35;;;1.08;;
11305;SDS011;5708;50.660;6.778;2022-10-15T05:44:11;1.90;;;0.98;;
11305;SDS011;5708;50.660;6.778;2022-10-15T05:46:37;1.88;;;1.10;;
11305;SDS011;5708;50.660;6.778;2022-10-15T05:49:02;5.03;;;1.33;;
11305;SDS011;5708;50.660;6.778;2022-10-15T05:51:27;2.25;;;1.30;;
11305;SDS011;5708;50.660;6.778;2022-10-15T05:53:54;2.65;;;1.00;;
11305;SDS011;5708;50.660;6.778;2022-10-15T05:56:20;1.67;;;1.20;;
11305;SDS011;5708;50.660;6.778;2022-10-15T05:58:46;1.60;;;1.17;;
11305;SDS011;5708;50.660;6.778;2022-10-15T06:01:11;2.20;;;1.15;;
11305;SDS011;5708;50.660;6.778;2022-10-15T06:03:38;1.65;;;1.20;;
11305;SDS011;5708;50.660;6.778;2022-10-15T06:06:04;1.73;;;1.20;;
11305;SDS011;5708;50.660;6.778;2022-10-15T06:08:30;2.47;;;1.25;;
11305;SDS011;5708;50.660;6.778;2022-10-15T06:11:00;1.67;;;1.17;;
11305;SDS011;5708;50.660;6.778;2022-10-15T06:13:27;3.10;;;1.30;;
11305;SDS011;5708;50.660;6.778;2022-10-15T06:15:52;2.85;;;1.20;;
11305;SDS011;5708;50.660;6.778;2022-10-15T06:18:17;3.30;;;1.42;;
11305;SDS011;5708;50.660;6.778;2022-10-15T06:20:43;3.35;;;1.20;;
11305;SDS011;5708;50.660;6.778;2022-10-15T06:23:09;2.55;;;0.93;;
11305;SDS011;5708;50.660;6.778;2022-10-15T06:25:35;2.63;;;1.20;;
11305;SDS011;5708;50.660;6.778;2022-10-15T06:28:01;0.82;;;0.70;;
11305;SDS011;5708;50.660;6.778;2022-10-15T06:30:30;1.70;;;0.82;;
11305;SDS011;5708;50.660;6.778;2022-10-15T06:32:55;1.33;;;0.90;;
11305;SDS011;5708;50.660;6.778;2022-10-15T06:35:21;2.88;;;1.00;;
11305;SDS011;5708;50.660;6.778;2022-10-15T06:37:47;1.42;;;1.00;;
11305;SDS011;5708;50.660;6.778;2022-10-15T06:40:13;4.70;;;1.10;;
11305;SDS011;5708;50.660;6.778;2022-10-15T06:42:39;1.90;;;0.88;;
11305;SDS011;5708;50.660;6.778;2022-10-15T06:45:05;2.25;;;0.85;;
11305;SDS011;5708;50.660;6.778;2022-10-15T06:47:31;2.85;;;1.10;;
11305;SDS011;5708;50.660;6.778;2022-10-15T06:49:57;2.22;;;0.88;;
11305;SDS011;5708;50.660;6.778;2022-10-15T06:52:22;2.30;;;1.00;;
11305;SDS011;5708;50.660;6.778;2022-10-15T06:54:49;1.40;;;0.90;;
11305;SDS011;5708;50.660;6.778;2022-10-15T06:57:14;2.45;;;0.93;;
11305;SDS011;5708;50.660;6.778;2022-10-15T06:59:40;5.50;;;1.10;;
11305;SDS011;5708;50.660;6.778;2022-10-15T07:02:05;0.82;;;0.65;;
11305;SDS011;5708;50.660;6.778;2022-10-15T07:04:31;1.77;;;0.75;;
11305;SDS011;5708;50.660;6.778;2022-10-15T07:06:56;2.08;;;0.80;;
11305;SDS011;5708;50.660;6.778;2022-10-15T07:09:22;1.45;;;0.90;;
11305;SDS011;5708;50.660;6.778;2022-10-15T07:11:47;0.98;;;0.88;;
11305;SDS011;5708;50.660;6.778;2022-10-15T07:14:12;1.20;;;0.90;;
11305;SDS011;5708;50.660;6.778;2022-10-15T07:16:38;1.08;;;0.90;;
11305;SDS011;5708;50.660;6.778;2022-10-15T07:19:06;3.53;;;1.25;;
11305;SDS011;5708;50.660;6.778;2022-10-15T07:21:31;2.00;;;0.70;;
11305;SDS011;5708;50.660;6.778;2022-10-15T07:23:56;2.30;;;0.70;;
11305;SDS011;5708;50.660;6.778;2022-10-15T07:26:23;5.38;;;0.85;;
11305;SDS011;5708;50.660;6.778;2022-10-15T07:28:48;4.78;;;0.80;;
11305;SDS011;5708;50.660;6.778;2022-10-15T07:31:14;2.80;;;0.70;;
11305;SDS011;5708;50.660;6.778;2022-10-15T07:33:41;1.70;;;0.90;;
11305;SDS011;5708;50.660;6.778;2022-10-15T07:36:07;1.08;;;0.80;;
11305;SDS011;5708;50.660;6.778;2022-10-15T07:38:33;1.48;;;0.88;;
11305;SDS011;5708;50.660;6.778;2022-10-15T07:41:00;3.00;;;0.90;;
11305;SDS011;5708;50.660;6.778;2022-10-15T07:43:26;3.67;;;1.42;;
11305;SDS011;5708;50.660;6.778;2022-10-15T07:45:52;3.25;;;1.00;;
11305;SDS011;5708;50.660;6.778;2022-10-15T07:48:17;4.90;;;1.23;;
11305;SDS011;5708;50.660;6.778;2022-10-15T07:50:43;3.67;;;0.90;;
11305;SDS011;5708;50.660;6.778;2022-10-15T07:53:08;3.67;;;1.05;;
11305;SDS011;5708;50.660;6.778;2022-10-15T07:55:34;2.88;;;1.02;;
11305;SDS011;5708;50.660;6.778;2022-10-15T07:57:59;4.32;;;1.00;;
11305;SDS011;5708;50.660;6.778;2022-10-15T08:00:25;3.13;;;0.63;;
11305;SDS011;5708;50.660;6.778;2022-10-15T08:02:50;1.30;;;0.80;;
11305;SDS011;5708;50.660;6.778;2022-10-15T08:05:15;2.17;;;0.93;;
11305;SDS011;5708;50.660;6.778;2022-10-15T08:07:41;2.55;;;0.80;;
11305;SDS011;5708;50.660;6.778;2022-10-15T08:10:06;1.80;;;0.90;;
11305;SDS011;5708;50.660;6.778;2022-10-15T08:12:33;3.33;;;1.40;;
11305;SDS011;5708;50.660;6.778;2022-10-15T08:14:59;2.13;;;0.90;;
11305;SDS011;5708;50.660;6.778;2022-10-15T08:17:24;2.42;;;1.15;;
11305;SDS011;5708;50.660;6.778;2022-10-15T08:19:49;1.73;;;1.05;;
11305;SDS011;5708;50.660;6.778;2022-10-15T08:22:14;5.00;;;1.20;;
11305;SDS011;5708;50.660;6.778;2022-10-15T08:24:40;4.80;;;2.13;;
11305;SDS011;5708;50.660;6.778;2022-10-15T08:27:05;2.03;;;1.20;;
11305;SDS011;5708;50.660;6.778;2022-10-15T08:29:30;2.00;;;0.88;;
11305;SDS011;5708;50.660;6.778;2022-10-15T08:31:56;1.73;;;0.70;;
11305;SDS011;5708;50.660;6.778;2022-10-15T08:34:21;1.98;;;0.70;;
11305;SDS011;5708;50.660;6.778;2022-10-15T08:36:46;1.33;;;0.60;;
11305;SDS011;5708;50.660;6.778;2022-10-15T08:39:11;0.50;;;0.40;;
11305;SDS011;5708;50.660;6.778;2022-10-15T08:41:39;2.70;;;0.57;;
11305;SDS011;5708;50.660;6.778;2022-10-15T08:47:12;0.57;;;0.30;;
11305;SDS011;5708;50.660;6.778;2022-10-15T08:49:42;0.80;;;0.30;;
11305;SDS011;5708;50.660;6.778;2022-10-15T08:52:53;1.88;;;0.30;;
11305;SDS011;5708;50.660;6.778;2022-10-15T08:55:15;0.45;;;0.30;;
11305;SDS011;5708;50.660;6.778;2022-10-15T08:57:45;0.85;;;0.35;;
11305;SDS011;5708;50.660;6.778;2022-10-15T09:00:16;0.32;;;0.20;;
11305;SDS011;5708;50.660;6.778;2022-10-15T09:02:49;1.95;;;0.20;;
11305;SDS011;5708;50.660;6.778;2022-10-15T09:07:59;0.27;;;0.20;;
11305;SDS011;5708;50.660;6.778;2022-10-15T09:15:40;1.00;;;0.40;;
11305;SDS011;5708;50.660;6.778;2022-10-15T09:18:15;1.70;;;0.50;;
11305;SDS011;5708;50.660;6.778;2022-10-15T09:20:42;0.80;;;0.30;;
11305;SDS011;5708;50.660;6.778;2022-10-15T09:23:19;0.40;;;0.38;;
11305;SDS011;5708;50.660;6.778;2022-10-15T09:25:48;1.45;;;0.80;;
11305;SDS011;5708;50.660;6.778;2022-10-15T09:28:19;0.65;;;0.30;;
11305;SDS011;5708;50.660;6.778;2022-10-15T09:30:50;2.55;;;0.20;;
11305;SDS011;5708;50.660;6.778;2022-10-15T09:33:37;0.95;;;0.52;;
11305;SDS011;5708;50.660;6.778;2022-10-15T09:36:27;2.15;;;0.50;;
11305;SDS011;5708;50.660;6.778;2022-10-15T09:42:09;0.40;;;0.30;;
11305;SDS011;5708;50.660;6.778;2022-10-15T09:44:44;0.75;;;0.20;;
11305;SDS011;5708;50.660;6.778;2022-10-15T09:47:15;0.20;;;0.20;;
11305;SDS011;5708;50.660;6.778;2022-10-15T09:49:41;0.45;;;0.40;;
11305;SDS011;5708;50.660;6.778;2022-10-15T09:57:11;0.43;;;0.20;;
11305;SDS011;5708;50.660;6.778;2022-10-15T09:59:50;1.33;;;0.30;;
11305;SDS011;5708;50.660;6.778;2022-10-15T10:02:18;0.10;;;0.10;;
11305;SDS011;5708;50.660;6.778;2022-10-15T10:04:44;0.25;;;0.20;;
11305;SDS011;5708;50.660;6.778;2022-10-15T10:07:24;0.98;;;0.30;;
11305;SDS011;5708;50.660;6.778;2022-10-15T10:12:48;1.48;;;0.40;;
11305;SDS011;5708;50.660;6.778;2022-10-15T10:15:33;0.25;;;0.20;;
11305;SDS011;5708;50.660;6.778;2022-10-15T10:18:03;0.77;;;0.30;;
11305;SDS011;5708;50.660;6.778;2022-10-15T10:20:31;0.50;;;0.20;;
11305;SDS011;5708;50.660;6.778;2022-10-15T10:23:01;1.73;;;0.32;;
11305;SDS011;5708;50.660;6.778;2022-10-15T10:28:03;0.45;;;0.30;;
11305;SDS011;5708;50.660;6.778;2022-10-15T10:30:38;1.13;;;0.30;;
11305;SDS011;5708;50.660;6.778;2022-10-15T10:33:12;1.08;;;0.25;;
11305;SDS011;5708;50.660;6.778;2022-10-15T10:35:48;0.35;;;0.30;;
11305;SDS011;5708;50.660;6.778;2022-10-15T10:38:21;0.82;;;0.30;;
11305;SDS011;5708;50.660;6.778;2022-10-15T10:43:55;0.45;;;0.20;;
11305;SDS011;5708;50.660;6.778;2022-10-15T10:46:20;0.30;;;0.20;;
11305;SDS011;5708;50.660;6.778;2022-10-15T10:48:49;0.20;;;0.20;;
11305;SDS011;5708;50.660;6.778;2022-10-15T10:51:17;0.52;;;0.20;;
11305;SDS011;5708;50.660;6.778;2022-10-15T10:54:17;0.57;;;0.20;;
11305;SDS011;5708;50.660;6.778;2022-10-15T10:56:39;1.67;;;0.20;;
11305;SDS011;5708;50.660;6.778;2022-10-15T10:59:14;0.75;;;0.25;;
11305;SDS011;5708;50.660;6.778;2022-10-15T11:01:41;0.63;;;0.20;;
11305;SDS011;5708;50.660;6.778;2022-10-15T11:04:23;0.43;;;0.30;;
11305;SDS011;5708;50.660;6.778;2022-10-15T11:10:02;0.22;;;0.13;;
11305;SDS011;5708;50.660;6.778;2022-10-15T11:12:42;0.15;;;0.10;;
11305;SDS011;5708;50.660;6.778;2022-10-15T11:18:02;0.30;;;0.30;;
11305;SDS011;5708;50.660;6.778;2022-10-15T11:23:53;1.08;;;0.20;;
11305;SDS011;5708;50.660;6.778;2022-10-15T11:29:20;0.85;;;0.20;;
11305;SDS011;5708;50.660;6.778;2022-10-15T11:40:46;5.57;;;2.17;;
11305;SDS011;5708;50.660;6.778;2022-10-15T11:49:00;3.42;;;1.42;;
11305;SDS011;5708;50.660;6.778;2022-10-15T11:54:26;8.35;;;3.85;;
11305;SDS011;5708;50.660;6.778;2022-10-15T11:56:55;2.58;;;1.08;;
11305;SDS011;5708;50.660;6.778;2022-10-15T12:01:53;3.42;;;1.95;;
11305;SDS011;5708;50.660;6.778;2022-10-15T12:04:41;4.30;;;2.10;;
11305;SDS011;5708;50.660;6.778;2022-10-15T12:07:12;3.47;;;0.73;;
11305;SDS011;5708;50.660;6.778;2022-10-15T12:09:41;2.95;;;0.60;;
11305;SDS011;5708;50.660;6.778;2022-10-15T12:15:06;0.65;;;0.20;;
11305;SDS011;5708;50.660;6.778;2022-10-15T12:17:39;0.95;;;0.30;;
11305;SDS011;5708;50.660;6.778;2022-10-15T12:20:08;0.70;;;0.30;;
11305;SDS011;5708;50.660;6.778;2022-10-15T12:30:30;1.38;;;0.68;;
11305;SDS011;5708;50.660;6.778;2022-10-15T12:32:58;1.92;;;0.47;;
11305;SDS011;5708;50.660;6.778;2022-10-15T12:35:30;6.28;;;1.42;;
11305;SDS011;5708;50.660;6.778;2022-10-15T12:37:57;4.30;;;1.10;;
11305;SDS011;5708;50.660;6.778;2022-10-15T12:40:34;2.25;;;0.65;;
11305;SDS011;5708;50.660;6.778;2022-10-15T12:43:01;4.53;;;0.80;;
11305;SDS011;5708;50.660;6.778;2022-10-15T12:45:32;0.63;;;0.30;;
11305;SDS011;5708;50.660;6.778;2022-10-15T12:50:28;3.30;;;0.68;;
11305;SDS011;5708;50.660;6.778;2022-10-15T12:56:10;2.53;;;0.70;;
11305;SDS011;5708;50.660;6.778;2022-10-15T12:58:33;4.38;;;0.80;;
11305;SDS011;5708;50.660;6.778;2022-10-15T13:01:26;3.22;;;0.82;;
11305;SDS011;5708;50.660;6.778;2022-10-15T13:04:11;3.17;;;0.82;;
11305;SDS011;5708;50.660;6.778;2022-10-15T13:06:36;8.55;;;1.58;;
11305;SDS011;5708;50.660;6.778;2022-10-15T13:09:05;5.10;;;1.17;;
11305;SDS011;5708;50.660;6.778;2022-10-15T13:11:46;3.05;;;0.65;;
11305;SDS011;5708;50.660;6.778;2022-10-15T13:16:58;1.52;;;0.40;;
11305;SDS011;5708;50.660;6.778;2022-10-15T13:19:30;4.28;;;0.90;;
11305;SDS011;5708;50.660;6.778;2022-10-15T13:22:02;2.03;;;0.60;;
11305;SDS011;5708;50.660;6.778;2022-10-15T13:24:37;1.95;;;0.40;;
11305;SDS011;5708;50.660;6.778;2022-10-15T13:27:11;3.05;;;0.50;;
11305;SDS011;5708;50.660;6.778;2022-10-15T13:29:38;4.15;;;0.80;;
11305;SDS011;5708;50.660;6.778;2022-10-15T13:32:06;4.45;;;0.80;;
11305;SDS011;5708;50.660;6.778;2022-10-15T13:34:37;5.32;;;1.05;;
11305;SDS011;5708;50.660;6.778;2022-10-15T13:37:03;2.22;;;0.45;;
11305;SDS011;5708;50.660;6.778;2022-10-15T13:39:29;3.50;;;0.75;;
11305;SDS011;5708;50.660;6.778;2022-10-15T13:42:08;4.22;;;0.80;;
11305;SDS011;5708;50.660;6.778;2022-10-15T13:44:38;2.15;;;0.55;;
11305;SDS011;5708;50.660;6.778;2022-10-15T13:47:24;3.70;;;0.88;;
11305;SDS011;5708;50.660;6.778;2022-10-15T13:49:51;0.70;;;0.40;;
11305;SDS011;5708;50.660;6.778;2022-10-15T13:52:37;4.03;;;0.80;;
11305;SDS011;5708;50.660;6.778;2022-10-15T13:55:04;6.43;;;0.93;;
11305;SDS011;5708;50.660;6.778;2022-10-15T13:57:42;2.58;;;0.88;;
11305;SDS011;5708;50.660;6.778;2022-10-15T14:00:18;2.10;;;0.60;;
11305;SDS011;5708;50.660;6.778;2022-10-15T14:02:48;0.90;;;0.35;;
11305;SDS011;5708;50.660;6.778;2022-10-15T14:05:31;1.95;;;0.70;;
11305;SDS011;5708;50.660;6.778;2022-10-15T14:07:56;2.17;;;0.90;;
11305;SDS011;5708;50.660;6.778;2022-10-15T14:10:21;5.03;;;0.80;;
11305;SDS011;5708;50.660;6.778;2022-10-15T14:12:47;1.98;;;0.73;;
11305;SDS011;5708;50.660;6.778;2022-10-15T14:18:07;3.83;;;0.60;;
11305;SDS011;5708;50.660;6.778;2022-10-15T14:20:32;1.02;;;0.50;;
11305;SDS011;5708;50.660;6.778;2022-10-15T14:22:58;0.40;;;0.32;;
11305;SDS011;5708;50.660;6.778;2022-10-15T14:25:23;2.75;;;0.40;;
11305;SDS011;5708;50.660;6.778;2022-10-15T14:27:49;0.68;;;0.40;;
11305;SDS011;5708;50.660;6.778;2022-10-15T14:30:29;0.93;;;0.60;;
11305;SDS011;5708;50.660;6.778;2022-10-15T14:32:56;0.55;;;0.30;;
11305;SDS011;5708;50.660;6.778;2022-10-15T14:35:23;0.52;;;0.50;;
11305;SDS011;5708;50.660;6.778;2022-10-15T14:38:02;1.02;;;0.70;;
11305;SDS011;5708;50.660;6.778;2022-10-15T14:40:28;1.17;;;0.63;;
11305;SDS011;5708;50.660;6.778;2022-10-15T14:47:48;1.25;;;0.50;;
11305;SDS011;5708;50.660;6.778;2022-10-15T14:50:15;2.40;;;1.38;;
11305;SDS011;5708;50.660;6.778;2022-10-15T14:52:42;5.57;;;1.80;;
11305;SDS011;5708;50.660;6.778;2022-10-15T14:57:49;2.17;;;1.20;;
11305;SDS011;5708;50.660;6.778;2022-10-15T15:02:52;1.65;;;0.98;;
11305;SDS011;5708;50.660;6.778;2022-10-15T15:05:20;2.08;;;1.20;;
11305;SDS011;5708;50.660;6.778;2022-10-15T15:07:47;2.10;;;1.17;;
11305;SDS011;5708;50.660;6.778;2022-10-15T15:10:13;3.38;;;1.90;;
11305;SDS011;5708;50.660;6.778;2022-10-15T15:12:38;2.15;;;1.17;;
11305;SDS011;5708;50.660;6.778;2022-10-15T15:15:17;3.05;;;1.50;;
11305;SDS011;5708;50.660;6.778;2022-10-15T15:17:44;1.83;;;1.02;;
11305;SDS011;5708;50.660;6.778;2022-10-15T15:20:10;2.00;;;1.13;;
11305;SDS011;5708;50.660;6.778;2022-10-15T15:22:36;3.28;;;1.17;;
11305;SDS011;5708;50.660;6.778;2022-10-15T15:25:03;1.10;;;0.60;;
11305;SDS011;5708;50.660;6.778;2022-10-15T15:27:34;1.05;;;0.70;;
11305;SDS011;5708;50.660;6.778;2022-10-15T15:30:02;1.95;;;0.60;;
11305;SDS011;5708;50.660;6.778;2022-10-15T15:32:30;1.05;;;0.50;;
11305;SDS011;5708;50.660;6.778;2022-10-15T15:34:55;2.05;;;0.45;;
11305;SDS011;5708;50.660;6.778;2022-10-15T15:37:22;3.13;;;0.68;;
11305;SDS011;5708;50.660;6.778;2022-10-15T15:39:48;0.80;;;0.43;;
11305;SDS011;5708;50.660;6.778;2022-10-15T15:42:15;1.13;;;0.50;;
11305;SDS011;5708;50.660;6.778;2022-10-15T15:44:41;0.40;;;0.32;;
11305;SDS011;5708;50.660;6.778;2022-10-15T15:47:07;1.33;;;0.57;;
11305;SDS011;5708;50.660;6.778;2022-10-15T15:49:34;2.28;;;0.50;;
11305;SDS011;5708;50.660;6.778;2022-10-15T15:52:00;1.83;;;0.30;;
11305;SDS011;5708;50.660;6.778;2022-10-15T15:54:26;4.15;;;0.47;;
11305;SDS011;5708;50.660;6.778;2022-10-15T15:56:52;2.67;;;0.65;;
11305;SDS011;5708;50.660;6.778;2022-10-15T15:59:17;0.73;;;0.40;;
11305;SDS011;5708;50.660;6.778;2022-10-15T16:01:43;1.52;;;0.60;;
11305;SDS011;5708;50.660;6.778;2022-10-15T16:04:10;2.35;;;0.60;;
11305;SDS011;5708;50.660;6.778;2022-10-15T16:06:36;2.28;;;0.73;;
11305;SDS011;5708;50.660;6.778;2022-10-15T16:09:02;2.60;;;0.95;;
11305;SDS011;5708;50.660;6.778;2022-10-15T16:11:29;2.70;;;0.73;;
11305;SDS011;5708;50.660;6.778;2022-10-15T16:13:56;4.35;;;0.90;;
11305;SDS011;5708;50.660;6.778;2022-10-15T16:16:21;1.40;;;0.73;;
11305;SDS011;5708;50.660;6.778;2022-10-15T16:18:46;2.63;;;1.00;;
11305;SDS011;5708;50.660;6.778;2022-10-15T16:21:12;2.60;;;1.13;;
11305;SDS011;5708;50.660;6.778;2022-10-15T16:23:37;2.20;;;0.85;;
11305;SDS011;5708;50.660;6.778;2022-10-15T16:26:02;3.85;;;1.10;;
11305;SDS011;5708;50.660;6.778;2022-10-15T16:28:28;1.65;;;1.10;;
11305;SDS011;5708;50.660;6.778;2022-10-15T16:30:53;3.53;;;1.33;;
11305;SDS011;5708;50.660;6.778;2022-10-15T16:33:18;4.55;;;1.23;;
11305;SDS011;5708;50.660;6.778;2022-10-15T16:35:49;3.83;;;1.75;;
11305;SDS011;5708;50.660;6.778;2022-10-15T16:38:15;2.40;;;1.25;;
11305;SDS011;5708;50.660;6.778;2022-10-15T16:40:40;4.50;;;1.50;;
11305;SDS011;5708;50.660;6.778;2022-10-15T16:43:05;6.47;;;1.52;;
11305;SDS011;5708;50.660;6.778;2022-10-15T16:45:31;3.67;;;1.33;;
11305;SDS011;5708;50.660;6.778;2022-10-15T16:47:57;2.60;;;1.27;;
11305;SDS011;5708;50.660;6.778;2022-10-15T16:50:22;1.92;;;1.10;;
11305;SDS011;5708;50.660;6.778;2022-10-15T16:52:47;2.00;;;0.85;;
11305;SDS011;5708;50.660;6.778;2022-10-15T16:55:13;2.60;;;1.30;;
11305;SDS011;5708;50.660;6.778;2022-10-15T16:57:38;4.57;;;1.13;;
11305;SDS011;5708;50.660;6.778;2022-10-15T17:00:03;2.88;;;1.20;;
11305;SDS011;5708;50.660;6.778;2022-10-15T17:02:29;2.63;;;1.15;;
11305;SDS011;5708;50.660;6.778;2022-10-15T17:04:54;1.65;;;0.90;;
11305;SDS011;5708;50.660;6.778;2022-10-15T17:07:20;2.45;;;1.00;;
11305;SDS011;5708;50.660;6.778;2022-10-15T17:09:46;3.15;;;0.93;;